createdAt,value
2019-05-06T00:01:54.169Z,101360.58
2019-05-06T00:04:24.666Z,101364.39
2019-05-06T00:06:55.066Z,101367.12
2019-05-06T00:09:24.622Z,101359.42
2019-05-06T00:11:54.609Z,101366.25
2019-05-06T00:14:24.376Z,101367.05
2019-05-06T00:16:54.767Z,101365.31
2019-05-06T00:19:25.187Z,101373.05
2019-05-06T00:21:54.690Z,101370.87
2019-05-06T00:24:26.086Z,101365.31
2019-05-06T00:27:14.167Z,101361.56
2019-05-06T00:29:46.808Z,101368.80
2019-05-06T00:32:15.216Z,101365.42
2019-05-06T00:34:44.707Z,101359.22
2019-05-06T00:37:15.620Z,101362.67
2019-05-06T00:39:59.325Z,101362.02
2019-05-06T00:42:34.658Z,101363.58
2019-05-06T00:45:05.423Z,101359.66
2019-05-06T00:47:34.932Z,101361.14
2019-05-06T00:50:05.546Z,101357.97
2019-05-06T00:52:36.102Z,101361.56
2019-05-06T00:55:06.018Z,101364.52
2019-05-06T00:57:44.890Z,101356.58
2019-05-06T01:00:25.335Z,101356.77
2019-05-06T01:02:54.829Z,101356.48
2019-05-06T01:05:24.561Z,101360.04
2019-05-06T01:07:54.894Z,101364.63
2019-05-06T01:10:24.756Z,101364.65
2019-05-06T01:13:11.991Z,101363.30
2019-05-06T01:15:41.569Z,101368.13
2019-05-06T01:18:11.083Z,101359.17
2019-05-06T01:20:40.582Z,101359.44
2019-05-06T01:23:10.101Z,101362.38
2019-05-06T01:25:39.614Z,101358.53
2019-05-06T01:28:09.119Z,101360.17
2019-05-06T01:30:38.616Z,101364.58
2019-05-06T01:33:08.128Z,101356.81
2019-05-06T01:35:37.623Z,101358.67
2019-05-06T01:38:30.286Z,101353.88
2019-05-06T01:41:10.212Z,101356.05
2019-05-06T01:43:39.827Z,101352.34
2019-05-06T01:46:10.431Z,101348.82
2019-05-06T01:48:48.963Z,101346.33
2019-05-06T01:51:19.331Z,101345.56
2019-05-06T01:53:49.185Z,101342.44
2019-05-06T01:56:18.670Z,101338.30
2019-05-06T01:58:48.250Z,101341.02
2019-05-06T02:01:17.743Z,101342.81
2019-05-06T02:03:47.243Z,101346.67
2019-05-06T02:06:16.735Z,101346.94
2019-05-06T02:08:46.233Z,101352.02
2019-05-06T02:11:15.717Z,101350.64
2019-05-06T02:13:45.285Z,101352.97
2019-05-06T02:16:14.946Z,101355.19
2019-05-06T02:18:45.087Z,101357.33
2019-05-06T02:21:33.758Z,101358.64
2019-05-06T02:24:05.210Z,101359.33
2019-05-06T02:26:34.718Z,101362.13
2019-05-06T02:29:06.044Z,101361.72
2019-05-06T02:31:56.691Z,101350.17
2019-05-06T02:34:31.785Z,101355.07
2019-05-06T02:37:10.626Z,101357.50
2019-05-06T02:39:43.574Z,101346.14
2019-05-06T02:42:13.033Z,101348.28
2019-05-06T02:44:44.123Z,101348.17
2019-05-06T02:47:25.405Z,101347.12
2019-05-06T02:49:58.187Z,101349.88
2019-05-06T02:52:27.702Z,101347.09
2019-05-06T02:54:57.220Z,101350.21
2019-05-06T02:57:26.767Z,101348.07
2019-05-06T02:59:56.286Z,101347.20
2019-05-06T03:02:37.963Z,101345.27
2019-05-06T03:04:56.982Z,101346.77
2019-05-06T03:07:26.480Z,101345.27
2019-05-06T03:09:55.992Z,101340.12
2019-05-06T03:12:25.487Z,101344.00
2019-05-06T03:14:54.989Z,101339.00
2019-05-06T03:17:24.485Z,101332.75
2019-05-06T03:19:55.639Z,101330.82
2019-05-06T03:22:43.498Z,101332.12
2019-05-06T03:25:23.843Z,101332.11
2019-05-06T03:27:53.303Z,101334.77
2019-05-06T03:30:25.667Z,101333.83
2019-05-06T03:33:30.202Z,101327.19
2019-05-06T03:35:42.546Z,101338.09
2019-05-06T03:37:56.673Z,101336.27
2019-05-06T03:40:26.286Z,101335.98
2019-05-06T03:42:56.864Z,101338.20
2019-05-06T03:45:37.223Z,101329.52
2019-05-06T03:48:12.999Z,101332.71
2019-05-06T03:50:44.085Z,101328.83
2019-05-06T03:53:14.165Z,101330.23
2019-05-06T03:55:47.013Z,101332.09
2019-05-06T03:58:16.342Z,101328.39
2019-05-06T04:00:47.132Z,101327.59
2019-05-06T04:03:16.629Z,101328.17
2019-05-06T04:05:46.727Z,101330.16
2019-05-06T04:08:20.161Z,101329.06
2019-05-06T04:10:47.488Z,101326.70
2019-05-06T04:13:17.021Z,101320.88
2019-05-06T04:16:13.834Z,101317.58
2019-05-06T04:18:48.005Z,101321.53
2019-05-06T04:21:25.989Z,101319.78
2019-05-06T04:24:03.857Z,101324.17
2019-05-06T04:26:53.428Z,101328.23
2019-05-06T04:29:24.070Z,101329.91
2019-05-06T04:31:54.235Z,101331.47
2019-05-06T04:34:23.878Z,101330.88
2019-05-06T04:36:53.670Z,101332.15
2019-05-06T04:39:23.629Z,101332.15
2019-05-06T04:41:54.026Z,101338.59
2019-05-06T04:44:24.014Z,101338.05
2019-05-06T04:46:54.452Z,101339.53
2019-05-06T04:49:25.317Z,101335.52
2019-05-06T04:51:55.048Z,101339.70
2019-05-06T04:54:26.581Z,101343.38
2019-05-06T04:56:56.790Z,101347.83
2019-05-06T04:59:26.313Z,101341.54
2019-05-06T05:01:55.816Z,101339.56
2019-05-06T05:04:32.149Z,101339.40
2019-05-06T05:06:56.681Z,101342.05
2019-05-06T05:09:27.152Z,101333.97
2019-05-06T05:12:04.153Z,101331.70
2019-05-06T05:14:42.322Z,101333.34
2019-05-06T05:17:43.726Z,101338.59
2019-05-06T05:20:13.251Z,101341.38
2019-05-06T05:22:42.774Z,101338.30
2019-05-06T05:25:12.583Z,101340.97
2019-05-06T05:27:42.288Z,101335.28
2019-05-06T05:30:13.616Z,101336.45
2019-05-06T05:32:43.207Z,101333.91
2019-05-06T05:35:12.946Z,101336.62
2019-05-06T05:37:42.455Z,101340.84
2019-05-06T05:40:13.088Z,101345.36
2019-05-06T05:42:58.991Z,101348.80
2019-05-06T05:45:28.578Z,101346.23
2019-05-06T05:48:00.275Z,101345.50
2019-05-06T05:50:33.939Z,101351.64
2019-05-06T05:53:03.977Z,101351.22
2019-05-06T05:55:34.113Z,101342.37
2019-05-06T05:58:03.802Z,101356.38
2019-05-06T06:00:34.930Z,101358.34
2019-05-06T06:03:07.021Z,101360.08
2019-05-06T06:05:35.817Z,101363.66
2019-05-06T06:08:05.364Z,101359.49
2019-05-06T06:10:47.523Z,101361.08
2019-05-06T06:13:17.258Z,101364.00
2019-05-06T06:15:58.312Z,101354.42
2019-05-06T06:18:39.179Z,101358.14
2019-05-06T06:21:36.600Z,101364.63
2019-05-06T06:24:22.569Z,101366.83
2019-05-06T06:26:52.232Z,101371.04
2019-05-06T06:29:22.788Z,101366.80
2019-05-06T06:32:26.903Z,101354.20
2019-05-06T06:35:11.323Z,101355.95
2019-05-06T06:37:42.976Z,101357.02
2019-05-06T06:40:13.168Z,101353.45
2019-05-06T06:42:42.867Z,101358.77
2019-05-06T06:45:12.525Z,101360.36
2019-05-06T06:47:42.502Z,101355.13
2019-05-06T06:50:12.811Z,101357.43
2019-05-06T06:52:42.383Z,101354.40
2019-05-06T06:55:12.946Z,101353.78
2019-05-06T06:58:12.030Z,101359.70
2019-05-06T07:00:48.939Z,101358.21
2019-05-06T07:03:24.705Z,101357.55
2019-05-06T07:06:07.719Z,101355.19
2019-05-06T07:08:37.831Z,101354.70
2019-05-06T07:11:08.988Z,101350.68
2019-05-06T07:13:43.328Z,101352.41
2019-05-06T07:16:12.839Z,101351.16
2019-05-06T07:18:42.745Z,101347.86
2019-05-06T07:21:18.261Z,101347.52
2019-05-06T07:23:47.773Z,101342.88
2019-05-06T07:26:19.174Z,101338.48
2019-05-06T07:28:48.783Z,101336.73
2019-05-06T07:31:22.651Z,101330.60
2019-05-06T07:33:52.084Z,101329.16
2019-05-06T07:36:22.813Z,101325.70
2019-05-06T07:38:53.003Z,101335.02
2019-05-06T07:41:36.167Z,101333.73
2019-05-06T07:44:42.410Z,101338.12
2019-05-06T07:47:18.138Z,101339.76
2019-05-06T07:49:47.728Z,101279.84
2019-05-06T07:52:17.524Z,101343.52
2019-05-06T07:54:47.090Z,101340.88
2019-05-06T07:57:16.642Z,101344.69
2019-05-06T07:59:46.149Z,101343.00
2019-05-06T08:02:15.708Z,101344.94
2019-05-06T08:04:46.218Z,101341.87
2019-05-06T08:07:15.722Z,101345.20
2019-05-06T08:09:45.328Z,101345.56
2019-05-06T08:12:14.838Z,101346.94
2019-05-06T08:14:44.343Z,101354.19
2019-05-06T08:17:24.563Z,101351.99
2019-05-06T08:19:54.100Z,101344.05
2019-05-06T08:22:42.652Z,101343.45
2019-05-06T08:25:12.268Z,101346.27
2019-05-06T08:27:42.558Z,101350.81
2019-05-06T08:30:13.007Z,101345.55
2019-05-06T08:32:42.701Z,101339.69
2019-05-06T08:35:14.868Z,101341.78
2019-05-06T08:37:44.620Z,101340.67
2019-05-06T08:40:14.964Z,101333.55
2019-05-06T08:42:44.467Z,101329.86
2019-05-06T08:45:14.463Z,101338.02
2019-05-06T08:47:43.994Z,101331.46
2019-05-06T08:50:21.845Z,101328.43
2019-05-06T08:53:05.314Z,101327.95
2019-05-06T08:55:37.665Z,101323.91
2019-05-06T08:58:07.399Z,101318.97
2019-05-06T09:00:42.893Z,101329.38
2019-05-06T09:03:14.250Z,101322.05
2019-05-06T09:05:46.591Z,101323.95
2019-05-06T09:08:16.082Z,101322.92
2019-05-06T09:10:45.590Z,101320.05
2019-05-06T09:13:15.238Z,101327.64
2019-05-06T09:15:44.758Z,101304.44
2019-05-06T09:18:14.268Z,101318.63
2019-05-06T09:20:43.803Z,101313.94
2019-05-06T09:23:13.342Z,101316.50
2019-05-06T09:25:42.907Z,101315.55
2019-05-06T09:28:18.184Z,101313.91
2019-05-06T09:30:55.105Z,101317.48
2019-05-06T09:33:30.290Z,101317.17
2019-05-06T09:35:59.831Z,101314.81
2019-05-06T09:38:29.364Z,101306.86
2019-05-06T09:40:58.881Z,101308.84
2019-05-06T09:43:28.434Z,101299.45
2019-05-06T09:45:58.016Z,101300.03
2019-05-06T09:48:33.832Z,101297.33
2019-05-06T09:51:03.331Z,101298.39
2019-05-06T09:53:54.818Z,101307.25
2019-05-06T09:56:29.581Z,101303.79
2019-05-06T09:58:59.216Z,101298.17
2019-05-06T10:01:28.708Z,101298.93
2019-05-06T10:03:59.312Z,101301.36
2019-05-06T10:06:28.868Z,101288.02
2019-05-06T10:08:58.418Z,101290.41
2019-05-06T10:11:28.026Z,101287.17
2019-05-06T10:13:57.541Z,101296.47
2019-05-06T10:16:27.127Z,101289.71
2019-05-06T10:18:56.648Z,101286.12
2019-05-06T10:21:27.248Z,101287.87
2019-05-06T10:23:57.018Z,101288.32
2019-05-06T10:26:26.523Z,101281.90
2019-05-06T10:29:14.057Z,101283.34
2019-05-06T10:31:48.297Z,101276.92
2019-05-06T10:34:17.806Z,101284.42
2019-05-06T10:37:11.536Z,101288.84
2019-05-06T10:39:34.159Z,101280.45
2019-05-06T10:42:13.054Z,101280.33
2019-05-06T10:44:56.453Z,101283.17
2019-05-06T10:47:25.968Z,101278.50
2019-05-06T10:49:55.502Z,101280.33
2019-05-06T10:52:47.083Z,101277.23
2019-05-06T10:55:16.589Z,101267.06
2019-05-06T10:57:46.820Z,101271.15
2019-05-06T11:00:18.334Z,101268.74
2019-05-06T11:02:57.786Z,101268.19
2019-05-06T11:05:27.313Z,101264.05
2019-05-06T11:07:56.870Z,101271.45
2019-05-06T11:10:32.153Z,101260.66
2019-05-06T11:12:57.675Z,101259.20
2019-05-06T11:15:27.229Z,101255.52
2019-05-06T11:17:56.801Z,101266.63
2019-05-06T11:20:26.320Z,101254.59
2019-05-06T11:22:55.850Z,101259.59
2019-05-06T11:25:25.694Z,101256.97
2019-05-06T11:27:55.334Z,101255.19
2019-05-06T11:30:43.973Z,101251.80
2019-05-06T11:33:39.104Z,101245.35
2019-05-06T11:36:23.081Z,101253.31
2019-05-06T11:38:52.533Z,101246.83
2019-05-06T11:41:23.392Z,101247.37
2019-05-06T11:43:53.010Z,101240.67
2019-05-06T11:46:22.917Z,101243.45
2019-05-06T11:48:52.506Z,101228.13
2019-05-06T11:51:23.703Z,101232.05
2019-05-06T11:53:54.119Z,101227.21
2019-05-06T11:56:23.811Z,101234.58
2019-05-06T11:58:54.394Z,101237.00
2019-05-06T12:01:27.072Z,101235.11
2019-05-06T12:03:56.588Z,101240.06
2019-05-06T12:06:26.097Z,101234.28
2019-05-06T12:08:55.647Z,101228.69
2019-05-06T12:11:25.192Z,101227.20
2019-05-06T12:13:54.933Z,101226.72
2019-05-06T12:16:26.124Z,101228.94
2019-05-06T12:18:55.885Z,101225.60
2019-05-06T12:21:25.370Z,101219.25
2019-05-06T12:23:54.923Z,101222.75
2019-05-06T12:26:24.440Z,101227.14
2019-05-06T12:28:54.134Z,101227.32
2019-05-06T12:31:23.713Z,101223.20
2019-05-06T12:33:53.587Z,101221.33
2019-05-06T12:36:23.879Z,101218.38
2019-05-06T12:39:16.155Z,101219.34
2019-05-06T12:42:15.408Z,101212.94
2019-05-06T12:45:03.628Z,101211.09
2019-05-06T12:47:53.353Z,101213.93
2019-05-06T12:50:22.899Z,101211.84
2019-05-06T12:52:52.860Z,101204.20
2019-05-06T12:55:25.264Z,101202.86
2019-05-06T12:57:55.223Z,101205.17
2019-05-06T13:00:26.301Z,101204.89
2019-05-06T13:02:55.783Z,101201.36
2019-05-06T13:05:25.911Z,101205.30
2019-05-06T13:07:55.418Z,101197.54
2019-05-06T13:10:24.931Z,101198.98
2019-05-06T13:12:59.963Z,101207.56
2019-05-06T13:15:29.848Z,101202.66
2019-05-06T13:17:59.464Z,101205.64
2019-05-06T13:20:34.162Z,101208.98
2019-05-06T13:23:17.564Z,101207.42
2019-05-06T13:25:45.161Z,101212.30
2019-05-06T13:28:14.232Z,101218.80
2019-05-06T13:30:43.816Z,101227.34
2019-05-06T13:33:44.286Z,101245.92
2019-05-06T13:36:14.167Z,101239.02
2019-05-06T13:38:43.713Z,101251.94
2019-05-06T13:41:13.327Z,101258.13
2019-05-06T13:43:47.250Z,101258.73
2019-05-06T13:46:23.194Z,101268.94
2019-05-06T13:48:59.072Z,101264.37
2019-05-06T13:51:32.201Z,101268.20
2019-05-06T13:54:02.590Z,101262.98
2019-05-06T13:56:33.325Z,101256.34
2019-05-06T13:59:05.128Z,101260.63
2019-05-06T14:01:52.680Z,101251.25
2019-05-06T14:04:24.073Z,101253.31
2019-05-06T14:06:53.721Z,101252.17
2019-05-06T14:09:31.110Z,101249.52
2019-05-06T14:11:54.472Z,101252.08
2019-05-06T14:14:24.043Z,101250.43
2019-05-06T14:16:53.564Z,101254.18
2019-05-06T14:19:23.065Z,101270.13
2019-05-06T14:21:52.587Z,101286.81
2019-05-06T14:24:22.407Z,101300.80
2019-05-06T14:27:02.582Z,101288.79
2019-05-06T14:29:38.107Z,101285.36
2019-05-06T14:32:07.666Z,101282.39
2019-05-06T14:34:37.172Z,101269.39
2019-05-06T14:37:06.704Z,101260.11
2019-05-06T14:39:52.263Z,101263.40
2019-05-06T14:42:10.277Z,101258.11
2019-05-06T14:44:39.810Z,101266.66
2019-05-06T14:47:15.242Z,101294.59
2019-05-06T14:49:44.751Z,101287.22
2019-05-06T14:52:14.272Z,101290.72
2019-05-06T14:54:53.170Z,101297.38
2019-05-06T14:57:24.032Z,101288.41
2019-05-06T14:59:55.641Z,101275.96
2019-05-06T15:02:27.410Z,101267.22
2019-05-06T15:04:57.875Z,101262.30
2019-05-06T15:07:27.390Z,101254.88
2019-05-06T15:10:14.912Z,101257.17
2019-05-06T15:12:28.140Z,101254.27
2019-05-06T15:14:57.665Z,101261.76
2019-05-06T15:17:27.230Z,101266.37
2019-05-06T15:19:57.258Z,101274.09
2019-05-06T15:22:26.829Z,101266.15
2019-05-06T15:24:56.337Z,101262.71
2019-05-06T15:27:25.828Z,101262.05
2019-05-06T15:29:57.738Z,101268.07
2019-05-06T15:32:33.760Z,101273.23
2019-05-06T15:35:22.329Z,101268.44
2019-05-06T15:37:57.733Z,101268.84
2019-05-06T15:40:32.916Z,101270.70
2019-05-06T15:42:58.550Z,101271.69
2019-05-06T15:45:28.091Z,101273.80
2019-05-06T15:47:57.636Z,101267.50
2019-05-06T15:50:27.148Z,101263.73
2019-05-06T15:52:56.670Z,101265.13
2019-05-06T15:55:26.177Z,101271.71
2019-05-06T15:57:55.841Z,101278.88
2019-05-06T16:00:26.811Z,101282.20
2019-05-06T16:02:56.341Z,101287.10
2019-05-06T16:05:26.672Z,101293.64
2019-05-06T16:07:57.339Z,101293.20
2019-05-06T16:10:26.919Z,101292.84
2019-05-06T16:12:56.425Z,101293.73
2019-05-06T16:15:25.920Z,101270.19
2019-05-06T16:17:55.452Z,101253.03
2019-05-06T16:20:24.962Z,101252.37
2019-05-06T16:23:03.344Z,101252.73
2019-05-06T16:25:32.926Z,101246.95
2019-05-06T16:28:02.571Z,101241.46
2019-05-06T16:30:33.777Z,101240.72
2019-05-06T16:33:04.085Z,101235.42
2019-05-06T16:35:34.500Z,101230.88
2019-05-06T16:38:04.036Z,101233.30
2019-05-06T16:40:33.740Z,101224.45
2019-05-06T16:43:03.366Z,101228.41
2019-05-06T16:45:32.966Z,101224.64
2019-05-06T16:48:03.644Z,101222.56
2019-05-06T16:50:33.240Z,101218.34
2019-05-06T16:53:02.891Z,101218.27
2019-05-06T16:55:55.043Z,101218.23
2019-05-06T16:58:24.624Z,101220.80
2019-05-06T17:00:54.154Z,101230.06
2019-05-06T17:03:42.836Z,101234.36
2019-05-06T17:06:18.870Z,101236.85
2019-05-06T17:08:48.379Z,101242.27
2019-05-06T17:11:28.284Z,101254.71
2019-05-06T17:13:49.203Z,101264.02
2019-05-06T17:16:18.920Z,101265.17
2019-05-06T17:18:48.442Z,101259.59
2019-05-06T17:21:17.951Z,101261.33
2019-05-06T17:23:47.483Z,101271.69
2019-05-06T17:26:17.000Z,101198.79
2019-05-06T17:29:18.307Z,101258.75
2019-05-06T17:32:02.729Z,101261.45
2019-05-06T17:34:35.111Z,101266.48
2019-05-06T17:37:12.474Z,101272.83
2019-05-06T17:39:42.502Z,101276.27
2019-05-06T17:42:13.691Z,101275.95
2019-05-06T17:44:43.539Z,101287.87
2019-05-06T17:47:24.688Z,101295.22
2019-05-06T17:49:54.253Z,101305.31
2019-05-06T17:52:23.814Z,101298.36
2019-05-06T17:54:53.340Z,101267.27
2019-05-06T17:57:22.891Z,101268.00
2019-05-06T17:59:52.934Z,101262.77
2019-05-06T18:02:24.096Z,101271.01
2019-05-06T18:04:53.580Z,101276.07
2019-05-06T18:07:23.126Z,101275.73
2019-05-06T18:09:52.668Z,101267.72
2019-05-06T18:12:23.169Z,101277.64
2019-05-06T18:14:53.499Z,101279.36
2019-05-06T18:17:23.195Z,101278.36
2019-05-06T18:19:52.788Z,101293.58
2019-05-06T18:22:22.767Z,101295.58
2019-05-06T18:24:52.645Z,101298.59
2019-05-06T18:27:22.701Z,101299.28
2019-05-06T18:29:53.248Z,101303.16
2019-05-06T18:32:23.470Z,101302.22
2019-05-06T18:34:53.225Z,101296.63
2019-05-06T18:37:23.398Z,101303.63
2019-05-06T18:39:53.200Z,101296.53
2019-05-06T18:42:23.677Z,101294.75
2019-05-06T18:44:54.356Z,101296.12
2019-05-06T18:47:23.874Z,101298.22
2019-05-06T18:49:53.492Z,101297.20
2019-05-06T18:52:23.108Z,101306.05
2019-05-06T18:54:52.717Z,101307.12
2019-05-06T18:57:22.756Z,101302.93
2019-05-06T18:59:53.281Z,101302.46
2019-05-06T19:02:23.122Z,101302.63
2019-05-06T19:05:13.067Z,101300.27
2019-05-06T19:07:43.658Z,101296.59
2019-05-06T19:10:33.330Z,101305.45
2019-05-06T19:13:02.894Z,101304.56
2019-05-06T19:15:33.876Z,101301.61
2019-05-06T19:18:03.473Z,101299.14
2019-05-06T19:20:33.973Z,101298.28
2019-05-06T19:23:03.535Z,101299.14
2019-05-06T19:25:34.763Z,101293.84
2019-05-06T19:28:04.657Z,101299.16
2019-05-06T19:30:34.169Z,101297.83
2019-05-06T19:33:03.687Z,101297.06
2019-05-06T19:35:36.998Z,101298.28
2019-05-06T19:38:05.270Z,101299.16
2019-05-06T19:40:34.946Z,101301.45
2019-05-06T19:43:05.538Z,101302.31
2019-05-06T19:45:35.054Z,101303.31
2019-05-06T19:48:04.621Z,101310.02
2019-05-06T19:50:36.752Z,101315.36
2019-05-06T19:53:05.448Z,101319.47
2019-05-06T19:55:34.977Z,101314.30
2019-05-06T19:58:04.494Z,101315.37
2019-05-06T20:00:34.852Z,101320.58
2019-05-06T20:03:04.434Z,101312.04
2019-05-06T20:05:54.396Z,101313.77
2019-05-06T20:08:37.580Z,101311.73
2019-05-06T20:11:13.220Z,101307.08
2019-05-06T20:13:43.778Z,101307.59
2019-05-06T20:16:13.303Z,101311.16
2019-05-06T20:18:42.943Z,101304.77
2019-05-06T20:21:12.496Z,101307.69
2019-05-06T20:23:42.587Z,101304.92
2019-05-06T20:26:13.231Z,101307.28
2019-05-06T20:28:43.068Z,101308.45
2019-05-06T20:31:12.751Z,101312.20
2019-05-06T20:33:42.304Z,101309.08
2019-05-06T20:36:12.612Z,101314.03
2019-05-06T20:38:42.387Z,101311.33
2019-05-06T20:41:12.879Z,101316.13
2019-05-06T20:43:42.502Z,101301.55
2019-05-06T20:46:12.538Z,101308.31
2019-05-06T20:48:43.032Z,101308.72
2019-05-06T20:51:12.647Z,101305.13
2019-05-06T20:53:43.154Z,101314.89
2019-05-06T20:56:12.761Z,101258.49
2019-05-06T20:58:42.270Z,101313.81
2019-05-06T21:01:12.764Z,101309.17
2019-05-06T21:03:42.543Z,101307.78
2019-05-06T21:06:13.369Z,101308.76
2019-05-06T21:08:43.792Z,101314.53
2019-05-06T21:11:25.875Z,101312.67
2019-05-06T21:13:44.503Z,101318.77
2019-05-06T21:16:14.020Z,101315.81
2019-05-06T21:18:43.523Z,101311.16
2019-05-06T21:21:13.660Z,101315.40
2019-05-06T21:23:43.226Z,101314.93
2019-05-06T21:26:13.673Z,101313.60
2019-05-06T21:28:46.409Z,101309.66
2019-05-06T21:31:15.492Z,101308.90
2019-05-06T21:33:44.990Z,101311.45
2019-05-06T21:36:14.501Z,101307.16
2019-05-06T21:38:44.045Z,101311.45
2019-05-06T21:41:13.557Z,101314.01
2019-05-06T21:43:49.062Z,101311.23
2019-05-06T21:46:14.297Z,101311.30
2019-05-06T21:48:43.801Z,101309.95
2019-05-06T21:51:13.327Z,101310.70
2019-05-06T21:53:42.862Z,101311.00
2019-05-06T21:56:13.091Z,101309.97
2019-05-06T21:58:42.943Z,101310.31
2019-05-06T22:01:12.705Z,101311.20
2019-05-06T22:03:43.356Z,101312.23
2019-05-06T22:06:13.193Z,101315.66
2019-05-06T22:08:42.654Z,101309.03
2019-05-06T22:11:12.226Z,101308.45
2019-05-06T22:13:42.570Z,101307.02
2019-05-06T22:16:12.611Z,101307.87
2019-05-06T22:18:43.294Z,101310.14
2019-05-06T22:21:19.011Z,101309.38
2019-05-06T22:24:07.487Z,101307.81
2019-05-06T22:26:37.010Z,101299.16
2019-05-06T22:29:06.632Z,101300.63
2019-05-06T22:31:36.144Z,101299.16
2019-05-06T22:34:05.660Z,101301.64
2019-05-06T22:36:35.174Z,101300.10
2019-05-06T22:39:06.344Z,101295.38
2019-05-06T22:41:37.465Z,101290.42
2019-05-06T22:44:13.695Z,101198.83
2019-05-06T22:46:38.402Z,101276.37
2019-05-06T22:49:07.922Z,101272.63
2019-05-06T22:51:37.412Z,101275.37
2019-05-06T22:54:06.914Z,101287.04
2019-05-06T22:56:36.407Z,101284.66
2019-05-06T22:59:06.114Z,101288.47
2019-05-06T23:01:54.591Z,101298.98
2019-05-06T23:04:26.218Z,101293.17
2019-05-06T23:06:55.790Z,101298.35
2019-05-06T23:09:25.304Z,101293.70
2019-05-06T23:11:54.816Z,101292.70
2019-05-06T23:14:31.219Z,101297.81
2019-05-06T23:16:55.544Z,101293.75
2019-05-06T23:19:25.054Z,101299.86
2019-05-06T23:21:55.540Z,101306.65
2019-05-06T23:24:25.044Z,101299.52
2019-05-06T23:26:54.904Z,101300.38
2019-05-06T23:29:24.509Z,101305.73
2019-05-06T23:31:54.085Z,101307.22
2019-05-06T23:34:24.570Z,101304.09
2019-05-06T23:37:25.155Z,101313.84
2019-05-06T23:40:37.209Z,101313.18
2019-05-06T23:43:43.281Z,101307.23
2019-05-06T23:46:49.081Z,101311.08
2019-05-06T23:49:54.667Z,101308.20
2019-05-06T23:53:02.779Z,101311.84
2019-05-06T23:56:08.391Z,101318.14
2019-05-06T23:58:37.891Z,101306.79
